East Galesburg, IL (61430)

3:09 AM CST on February 22, 2017 (GMT -0600)
Willow Lane Area | | Change Station
Active Advisory: Dense Fog Advisory

Elev 781 ft 40.96 °N, 90.35 °W | Updated 7 minutes ago

Overcast
Overcast
51.3 °F
Feels Like 51.3 °F
N
0.0
Wind Variable Wind from SSW
Gusts 0.0 mph

Today
High -- | Low -- °F
--% Chance of Precip.
Yesterday
High -- | Low -- °F
Precip. -- in
Pressure 29.84 in
Visibility 0.2 miles
Clouds Overcast 200 ft
Dew Point 50 °F
Humidity 95%
Rainfall 0.00 in
Snow Depth Not available.
6:45 AM 5:44 PM
Waning Crescent, 18% visible
METAR KGBG 220855Z AUTO 20004KT 1/4SM FG OVC002 08/08 A2984 RMK AO2 T00770077
Pressure 29.84 in
Visibility 0.2 miles
Clouds Overcast 200 ft
Dew Point 50 °F
Humidity 95%
Rainfall 0.00 in
Snow Depth Not available.
6:45 AM 5:44 PM
Waning Crescent, 18% visible
METAR KGBG 220855Z AUTO 20004KT 1/4SM FG OVC002 08/08 A2984 RMK AO2 T00770077

Get Your Daily Forecast Email!

Thanks for signing up!

Be on the lookout for a verification email in your inbox.

You'll start receiving the daily forecast at 8 AM.

×

10-Day Weather Forecast

Almanac

Astronomy

Feb. 22, 2017 Rise Set
Actual Time
Civil Twilight
Nautical Twilight
Astronomical Twilight
Moon
Length of Visible Light
Length of Day
Tomorrow will be .
, % of the Moon is Illuminated

Today's Extremes

State Highs State Lows

Community

WunderPhotos

Upload Photos

1,962,540 photos uploaded!

WunderBlog® & News

Nearby

Air Quality

  Air Quality AQ Index Pollutant
Not available.

Snow Depth

Station Depth Elevation

Earthquake Activity

City Distance Mag. Time & Date
Minimum magnitude displayed is 2.5.

Coastal Water Temperatures

Place Temperature

Stations

Nearby Weather Stations

Station Location Temp. Windchill Dew Point Humidity Wind Precip. Elev Updated Type
                   

Watches & Warnings

Dense Fog Advisory
Issued: 10:51 PM CST Feb. 21, 2017 – National Weather Service

... Dense fog advisory in effect until 9 am CST Wednesday...

The National Weather Service in Lincoln has issued a dense fog
advisory... which is in effect until 9 am CST Wednesday.

* Visibility... will continue to degrade overnight, frequently
falling below one quarter mile at times.

* Impacts... areas of low visibility and rapid changes in visibility
will cause hazardous driving conditions.

Precautionary/preparedness actions...

A dense fog advisory means visibilities will frequently be
reduced to less than one quarter mile. If driving... slow down...
use your headlights... and leave plenty of distance ahead of you.



Bak